createdAt,value
2022-09-12T00:01:28.923Z,92822.41
2022-09-12T00:03:00.631Z,92818.50
2022-09-12T00:04:32.146Z,92824.59
2022-09-12T00:06:08.020Z,92822.56
2022-09-12T00:07:39.834Z,92829.13
2022-09-12T00:09:12.328Z,92825.53
2022-09-12T00:10:43.997Z,92835.59
2022-09-12T00:12:15.984Z,92827.34
2022-09-12T00:13:47.562Z,92828.03
2022-09-12T00:15:19.163Z,92822.16
2022-09-12T00:16:50.699Z,92825.59
2022-09-12T00:18:22.170Z,92827.84
2022-09-12T00:19:53.707Z,92828.06
2022-09-12T00:21:25.650Z,92820.97
2022-09-12T00:22:57.376Z,92824.47
2022-09-12T00:24:28.959Z,92828.66
2022-09-12T00:26:00.699Z,92832.84
2022-09-12T00:27:32.252Z,92835.09
2022-09-12T00:29:03.718Z,92831.97
2022-09-12T00:30:35.472Z,92835.34
2022-09-12T00:32:06.945Z,92829.81
2022-09-12T00:33:38.561Z,92837.94
2022-09-12T00:35:10.181Z,92841.00
2022-09-12T00:36:41.767Z,92835.50
2022-09-12T00:38:13.670Z,92833.56
2022-09-12T00:39:45.162Z,92831.19
2022-09-12T00:41:16.697Z,92829.63
2022-09-12T00:42:48.209Z,92828.03
2022-09-12T00:44:22.427Z,92835.72
2022-09-12T00:45:54.564Z,92831.75
2022-09-12T00:47:29.686Z,92830.88
2022-09-12T00:49:01.369Z,92822.75
2022-09-12T00:50:32.952Z,92816.88
2022-09-12T00:52:04.637Z,92817.22
2022-09-12T00:53:36.436Z,92821.84
2022-09-12T00:55:10.081Z,92819.00
2022-09-12T00:56:41.918Z,92817.75
2022-09-12T00:58:36.287Z,92820.03
2022-09-12T01:00:14.310Z,92816.09
2022-09-12T01:01:46.008Z,92817.22
2022-09-12T01:03:18.484Z,92811.66
2022-09-12T01:04:50.264Z,92821.94
2022-09-12T01:06:24.058Z,92817.53
2022-09-12T01:07:56.480Z,92817.44
2022-09-12T01:09:28.007Z,92812.34
2022-09-12T01:10:59.496Z,92807.28
2022-09-12T01:12:31.511Z,92813.03
2022-09-12T01:14:03.031Z,92812.44
2022-09-12T01:15:35.157Z,92809.97
2022-09-12T01:17:06.648Z,92799.34
2022-09-12T01:18:42.023Z,92805.09
2022-09-12T01:20:46.254Z,92799.59
2022-09-12T01:22:35.972Z,92805.56
2022-09-12T01:24:31.046Z,92795.28
2022-09-12T01:26:09.113Z,92793.91
2022-09-12T01:27:40.742Z,92793.69
2022-09-12T01:29:12.369Z,92803.19
2022-09-12T01:31:02.352Z,92800.69
2022-09-12T01:32:46.914Z,92803.25
2022-09-12T01:34:20.870Z,92809.78
2022-09-12T01:35:55.176Z,92805.16
2022-09-12T01:37:33.479Z,92805.63
2022-09-12T01:39:17.384Z,92812.63
2022-09-12T01:40:52.019Z,92804.97
2022-09-12T01:42:42.371Z,92807.66
2022-09-12T01:44:15.456Z,92801.00
2022-09-12T01:45:48.274Z,92803.72
2022-09-12T01:47:43.006Z,92806.75
2022-09-12T01:49:25.451Z,92805.06
2022-09-12T01:51:00.410Z,92815.75
2022-09-12T01:52:33.411Z,92812.13
2022-09-12T01:54:20.844Z,92811.22
2022-09-12T01:55:54.098Z,92808.25
2022-09-12T01:57:27.979Z,92805.13
2022-09-12T01:59:02.373Z,92802.25
2022-09-12T02:00:34.817Z,92809.44
2022-09-12T02:02:16.442Z,92806.41
2022-09-12T02:03:52.688Z,92806.41
2022-09-12T02:05:37.042Z,92810.47
2022-09-12T02:07:11.770Z,92805.38
2022-09-12T02:08:45.299Z,92806.19
2022-09-12T02:10:20.843Z,92810.78
2022-09-12T02:11:52.786Z,92809.88
2022-09-12T02:13:36.258Z,92807.50
2022-09-12T02:15:08.426Z,92808.59
2022-09-12T02:16:40.256Z,92803.00
2022-09-12T02:18:14.728Z,92804.59
2022-09-12T02:19:51.562Z,92812.25
2022-09-12T02:21:23.247Z,92805.91
2022-09-12T02:22:55.210Z,92810.09
2022-09-12T02:24:30.526Z,92810.28
2022-09-12T02:26:03.826Z,92817.13
2022-09-12T02:27:49.722Z,92825.25
2022-09-12T02:29:21.365Z,92816.34
2022-09-12T02:31:02.123Z,92823.22
2022-09-12T02:32:38.251Z,92825.47
2022-09-12T02:34:09.789Z,92823.09
2022-09-12T02:35:52.417Z,92829.63
2022-09-12T02:37:26.054Z,92825.97
2022-09-12T02:38:57.936Z,92823.50
2022-09-12T02:40:30.212Z,92828.44
2022-09-12T02:42:01.965Z,92818.59
2022-09-12T02:43:33.554Z,92826.72
2022-09-12T02:45:05.525Z,92825.91
2022-09-12T02:46:39.210Z,92826.91
2022-09-12T02:48:21.575Z,92828.03
2022-09-12T02:49:53.435Z,92824.53
2022-09-12T02:51:25.114Z,92823.75
2022-09-12T02:53:04.018Z,92816.44
2022-09-12T02:54:35.561Z,92820.25
2022-09-12T02:56:07.880Z,92821.22
2022-09-12T02:57:39.508Z,92825.59
2022-09-12T02:59:11.890Z,92825.31
2022-09-12T03:01:03.928Z,92826.16
2022-09-12T03:02:38.444Z,92829.06
2022-09-12T03:04:28.471Z,92820.16
2022-09-12T03:06:01.022Z,92819.69
2022-09-12T03:07:38.632Z,92829.25
2022-09-12T03:09:29.049Z,92828.66
2022-09-12T03:11:19.386Z,92821.03
2022-09-12T03:13:00.551Z,92816.16
2022-09-12T03:14:37.889Z,92822.97
2022-09-12T03:16:09.494Z,92818.38
2022-09-12T03:17:47.209Z,92817.25
2022-09-12T03:19:24.767Z,92821.72
2022-09-12T03:21:02.465Z,92822.19
2022-09-12T03:22:34.529Z,92824.91
2022-09-12T03:24:06.073Z,92824.41
2022-09-12T03:25:57.881Z,92828.56
2022-09-12T03:27:30.396Z,92830.28
2022-09-12T03:29:02.079Z,92831.28
2022-09-12T03:30:47.069Z,92830.34
2022-09-12T03:32:18.813Z,92825.56
2022-09-12T03:33:50.502Z,92831.28
2022-09-12T03:35:24.587Z,92827.81
2022-09-12T03:36:56.121Z,92824.47
2022-09-12T03:38:27.903Z,92829.53
2022-09-12T03:39:59.459Z,92825.25
2022-09-12T03:41:30.964Z,92825.25
2022-09-12T03:43:02.836Z,92826.38
2022-09-12T03:44:34.549Z,92831.78
2022-09-12T03:46:06.258Z,92837.03
2022-09-12T03:47:37.839Z,92834.19
2022-09-12T03:49:09.330Z,92843.25
2022-09-12T03:50:40.948Z,92845.81
2022-09-12T03:52:12.564Z,92860.28
2022-09-12T03:53:44.259Z,92850.44
2022-09-12T03:55:16.017Z,92851.59
2022-09-12T03:56:47.514Z,92846.19
2022-09-12T03:58:19.045Z,92847.41
2022-09-12T03:59:50.810Z,92835.50
2022-09-12T04:01:22.481Z,92835.34
2022-09-12T04:02:55.541Z,92835.16
2022-09-12T04:04:27.234Z,92839.13
2022-09-12T04:05:58.752Z,92838.47
2022-09-12T04:07:30.332Z,92841.31
2022-09-12T04:09:01.961Z,92841.47
2022-09-12T04:10:33.471Z,92844.31
2022-09-12T04:12:05.183Z,92842.88
2022-09-12T04:13:36.894Z,92839.84
2022-09-12T04:15:09.047Z,92846.00
2022-09-12T04:16:40.575Z,92843.31
2022-09-12T04:18:12.104Z,92837.16
2022-09-12T04:19:43.672Z,92843.00
2022-09-12T04:21:16.564Z,92838.84
2022-09-12T04:22:48.070Z,92847.75
2022-09-12T04:24:19.734Z,92848.06
2022-09-12T04:25:57.512Z,92840.63
2022-09-12T04:27:29.444Z,92844.47
2022-09-12T04:29:00.958Z,92841.59
2022-09-12T04:30:33.708Z,92848.44
2022-09-12T04:32:05.359Z,92852.56
2022-09-12T04:33:37.149Z,92855.59
2022-09-12T04:35:09.048Z,92856.38
2022-09-12T04:36:40.617Z,92856.53
2022-09-12T04:38:12.106Z,92850.03
2022-09-12T04:39:43.794Z,92843.78
2022-09-12T04:41:15.712Z,92855.72
2022-09-12T04:42:47.290Z,92857.09
2022-09-12T04:44:18.901Z,92860.22
2022-09-12T04:45:50.630Z,92861.41
2022-09-12T04:47:23.255Z,92865.19
2022-09-12T04:48:57.004Z,92865.78
2022-09-12T04:50:28.989Z,92856.34
2022-09-12T04:52:00.857Z,92870.16
2022-09-12T04:53:32.830Z,92857.13
2022-09-12T04:55:04.637Z,92859.47
2022-09-12T04:56:39.324Z,92861.84
2022-09-12T04:58:10.912Z,92863.25
2022-09-12T04:59:42.811Z,92861.13
2022-09-12T05:01:15.564Z,92857.44
2022-09-12T05:02:47.349Z,92863.56
2022-09-12T05:04:19.625Z,92865.06
2022-09-12T05:05:54.508Z,92863.53
2022-09-12T05:07:27.983Z,92866.31
2022-09-12T05:08:59.824Z,92868.28
2022-09-12T05:10:31.561Z,92871.03
2022-09-12T05:12:04.986Z,92872.66
2022-09-12T05:13:37.918Z,92874.72
2022-09-12T05:15:09.873Z,92880.13
2022-09-12T05:16:41.478Z,92881.97
2022-09-12T05:18:13.066Z,92882.88
2022-09-12T05:19:44.552Z,92890.91
2022-09-12T05:21:16.811Z,92885.72
2022-09-12T05:22:48.473Z,92886.19
2022-09-12T05:24:19.971Z,92881.31
2022-09-12T05:25:51.733Z,92880.66
2022-09-12T05:27:23.550Z,92883.50
2022-09-12T05:28:55.200Z,92883.84
2022-09-12T05:30:27.067Z,92875.25
2022-09-12T05:31:58.662Z,92894.44
2022-09-12T05:33:30.501Z,92897.00
2022-09-12T05:35:02.226Z,92897.69
2022-09-12T05:36:34.016Z,92885.84
2022-09-12T05:38:06.356Z,92879.09
2022-09-12T05:39:37.950Z,92895.94
2022-09-12T05:41:13.474Z,92891.06
2022-09-12T05:42:48.550Z,92881.91
2022-09-12T05:44:20.118Z,92883.25
2022-09-12T05:45:51.754Z,92884.72
2022-09-12T05:47:23.737Z,92879.88
2022-09-12T05:48:56.576Z,92879.28
2022-09-12T05:50:29.087Z,92879.94
2022-09-12T05:52:00.704Z,92881.63
2022-09-12T05:53:32.648Z,92884.03
2022-09-12T05:55:04.599Z,92882.91
2022-09-12T05:56:39.817Z,92879.81
2022-09-12T05:58:11.324Z,92881.34
2022-09-12T05:59:43.600Z,92877.09
2022-09-12T06:01:15.837Z,92885.06
2022-09-12T06:02:54.012Z,92878.94
2022-09-12T06:04:25.621Z,92877.53
2022-09-12T06:05:57.386Z,92878.16
2022-09-12T06:07:30.107Z,92874.31
2022-09-12T06:09:02.059Z,92876.22
2022-09-12T06:10:35.579Z,92869.22
2022-09-12T06:12:08.871Z,92878.50
2022-09-12T06:13:40.503Z,92875.44
2022-09-12T06:15:12.228Z,92877.81
2022-09-12T06:16:43.978Z,92875.09
2022-09-12T06:18:15.519Z,92875.19
2022-09-12T06:19:47.141Z,92877.81
2022-09-12T06:21:18.965Z,92875.44
2022-09-12T06:22:53.390Z,92873.84
2022-09-12T06:24:24.971Z,92868.50
2022-09-12T06:25:56.643Z,92866.63
2022-09-12T06:27:28.279Z,92866.91
2022-09-12T06:29:00.482Z,92862.38
2022-09-12T06:30:32.264Z,92866.06
2022-09-12T06:39:57.286Z,92875.81
2022-09-12T06:41:29.459Z,92881.69
2022-09-12T06:43:01.044Z,92882.31
2022-09-12T06:44:32.520Z,92884.78
2022-09-12T06:46:04.161Z,92894.22
2022-09-12T06:47:35.802Z,92887.53
2022-09-12T06:49:08.263Z,92892.00
2022-09-12T06:50:39.786Z,92893.38
2022-09-12T06:52:11.547Z,92879.66
2022-09-12T06:53:44.592Z,92880.84
2022-09-12T06:55:19.794Z,92883.16
2022-09-12T06:56:52.708Z,92885.66
2022-09-12T06:58:24.858Z,92882.00
2022-09-12T06:59:56.758Z,92893.47
2022-09-12T07:01:29.242Z,92895.47
2022-09-12T07:03:00.800Z,92887.22
2022-09-12T07:04:33.905Z,92896.13
2022-09-12T07:06:06.482Z,92897.72
2022-09-12T07:07:38.323Z,92897.34
2022-09-12T07:09:10.786Z,92907.44
2022-09-12T07:10:42.450Z,92904.66
2022-09-12T07:12:14.261Z,92907.66
2022-09-12T07:13:46.693Z,92903.72
2022-09-12T07:15:18.461Z,92905.16
2022-09-12T07:16:50.883Z,92904.28
2022-09-12T07:18:22.880Z,92910.28
2022-09-12T07:19:54.812Z,92907.06
2022-09-12T07:21:26.437Z,92915.91
2022-09-12T07:22:58.030Z,92916.97
2022-09-12T07:24:29.549Z,92911.47
2022-09-12T07:26:01.727Z,92922.69
2022-09-12T07:27:33.259Z,92917.25
2022-09-12T07:29:32.258Z,92920.31
2022-09-12T07:30:57.172Z,92918.31
2022-09-12T07:32:28.693Z,92922.16
2022-09-12T07:34:00.300Z,92918.59
2022-09-12T07:35:33.779Z,92919.38
2022-09-12T07:37:06.004Z,92922.44
2022-09-12T07:38:38.036Z,92934.47
2022-09-12T07:40:10.492Z,92933.69
2022-09-12T07:41:42.233Z,92926.22
2022-09-12T07:43:13.945Z,92923.78
2022-09-12T07:44:46.164Z,92922.66
2022-09-12T07:46:17.695Z,92931.66
2022-09-12T07:47:49.672Z,92920.88
2022-09-12T07:49:21.521Z,92915.94
2022-09-12T07:51:01.796Z,92915.94
2022-09-12T07:52:33.689Z,92914.91
2022-09-12T07:54:08.574Z,92919.72
2022-09-12T07:55:40.967Z,92916.31
2022-09-12T07:57:12.750Z,92925.69
2022-09-12T07:58:44.538Z,92927.00
2022-09-12T08:00:16.665Z,92919.41
2022-09-12T08:01:48.447Z,92911.25
2022-09-12T08:03:20.364Z,92908.53
2022-09-12T08:04:52.026Z,92915.06
2022-09-12T08:06:25.560Z,92916.91
2022-09-12T08:07:57.902Z,92910.16
2022-09-12T08:09:30.845Z,92912.50
2022-09-12T08:11:02.873Z,92913.03
2022-09-12T08:12:34.903Z,92906.00
2022-09-12T08:14:06.440Z,92906.94
2022-09-12T08:15:38.080Z,92910.19
2022-09-12T08:17:09.915Z,92917.00
2022-09-12T08:18:41.695Z,92911.28
2022-09-12T08:20:13.239Z,92909.09
2022-09-12T08:21:45.019Z,92913.13
2022-09-12T08:23:18.356Z,92912.44
2022-09-12T08:24:49.975Z,92905.97
2022-09-12T08:26:21.699Z,92905.03
2022-09-12T08:27:53.557Z,92901.75
2022-09-12T08:29:25.161Z,92900.47
2022-09-12T08:31:03.946Z,92898.75
2022-09-12T08:32:35.926Z,92899.28
2022-09-12T08:34:08.419Z,92900.50
2022-09-12T08:35:40.550Z,92904.00
2022-09-12T08:37:12.793Z,92902.03
2022-09-12T08:38:46.018Z,92904.75
2022-09-12T08:40:19.029Z,92901.59
2022-09-12T08:44:05.129Z,92892.44
2022-09-12T08:45:43.491Z,92893.88
2022-09-12T08:47:33.800Z,92895.69
2022-09-12T08:49:05.446Z,92889.63
2022-09-12T08:50:37.175Z,92891.47
2022-09-12T08:52:15.845Z,92893.16
2022-09-12T08:53:48.134Z,92896.84
2022-09-12T08:55:26.712Z,92890.41
2022-09-12T08:56:59.761Z,92896.44
2022-09-12T08:58:32.270Z,92883.69
2022-09-12T09:00:04.729Z,92883.41
2022-09-12T09:01:38.590Z,92886.50
2022-09-12T09:03:17.971Z,92883.66
2022-09-12T09:04:53.145Z,92889.81
2022-09-12T09:06:27.792Z,92888.13
2022-09-12T09:08:21.373Z,92890.41
2022-09-12T09:10:08.045Z,92893.06
2022-09-12T09:11:42.993Z,92889.56
2022-09-12T09:13:51.864Z,92888.50
2022-09-12T09:15:29.774Z,92885.59
2022-09-12T09:17:03.904Z,92887.34
2022-09-12T09:18:38.566Z,92886.31
2022-09-12T09:20:29.095Z,92882.91
2022-09-12T09:22:03.228Z,92880.63
2022-09-12T09:23:43.230Z,92883.28
2022-09-12T09:25:23.074Z,92883.59
2022-09-12T09:27:14.254Z,92874.13
2022-09-12T09:28:57.584Z,92892.41
2022-09-12T09:30:29.268Z,92886.03
2022-09-12T09:32:01.196Z,92886.75
2022-09-12T09:33:35.446Z,92889.41
2022-09-12T09:35:25.766Z,92885.00
2022-09-12T09:37:01.748Z,92879.41
2022-09-12T09:38:54.203Z,92879.81
2022-09-12T09:40:35.290Z,92879.47
2022-09-12T09:42:13.474Z,92879.94
2022-09-12T09:43:45.311Z,92886.72
2022-09-12T09:45:20.986Z,92871.59
2022-09-12T09:46:54.020Z,92873.72
2022-09-12T09:48:27.088Z,92883.59
2022-09-12T09:49:59.057Z,92874.22
2022-09-12T09:51:34.585Z,92876.56
2022-09-12T09:53:06.262Z,92875.78
2022-09-12T09:54:41.692Z,92873.84
2022-09-12T09:56:23.168Z,92871.84
2022-09-12T09:57:55.042Z,92861.69
2022-09-12T09:59:30.137Z,92865.25
2022-09-12T10:01:02.684Z,92866.50
2022-09-12T10:02:34.472Z,92861.47
2022-09-12T10:04:07.570Z,92860.34
2022-09-12T10:05:49.483Z,92858.34
2022-09-12T10:07:21.986Z,92860.31
2022-09-12T10:09:03.633Z,92863.03
2022-09-12T10:10:35.358Z,92863.38
2022-09-12T10:12:27.369Z,92868.78
2022-09-12T10:14:01.609Z,92866.41
2022-09-12T10:15:34.968Z,92871.59
2022-09-12T10:17:23.342Z,92861.88
2022-09-12T10:18:56.418Z,92857.59
2022-09-12T10:20:30.627Z,92854.06
2022-09-12T10:22:03.883Z,92861.09
2022-09-12T10:23:41.429Z,92859.81
2022-09-12T10:25:15.617Z,92864.06
2022-09-12T10:26:53.262Z,92868.72
2022-09-12T10:28:36.285Z,92867.09
2022-09-12T10:30:17.781Z,92872.53
2022-09-12T10:31:51.535Z,92874.84
2022-09-12T10:33:23.586Z,92872.84
2022-09-12T10:35:05.966Z,92870.41
2022-09-12T10:36:38.912Z,92866.13
2022-09-12T10:38:16.169Z,92869.44
2022-09-12T10:39:54.813Z,92864.13
2022-09-12T10:41:26.691Z,92861.97
2022-09-12T10:43:01.245Z,92852.75
2022-09-12T10:44:33.557Z,92852.91
2022-09-12T10:46:24.423Z,92854.94
2022-09-12T10:48:03.032Z,92861.66
2022-09-12T10:49:40.487Z,92862.38
2022-09-12T10:51:24.304Z,92869.78
2022-09-12T10:52:59.474Z,92867.72
2022-09-12T10:54:31.536Z,92872.34
2022-09-12T10:56:06.942Z,92876.19
2022-09-12T10:57:43.393Z,92869.88
2022-09-12T10:59:34.383Z,92870.66
2022-09-12T11:01:12.612Z,92872.19
2022-09-12T11:02:44.263Z,92872.19
2022-09-12T11:04:16.509Z,92863.94
2022-09-12T11:05:48.318Z,92872.91
2022-09-12T11:07:40.061Z,92866.97
2022-09-12T11:09:29.959Z,92865.03
2022-09-12T11:11:08.248Z,92871.28
2022-09-12T11:13:00.123Z,92869.03
2022-09-12T11:14:44.324Z,92866.81
2022-09-12T11:16:15.979Z,92866.94
2022-09-12T11:17:52.086Z,92858.75
2022-09-12T11:19:29.845Z,92854.44
2022-09-12T11:21:02.765Z,92854.81
2022-09-12T11:22:53.170Z,92852.47
2022-09-12T11:24:27.542Z,92857.19
2022-09-12T11:26:04.868Z,92854.38
2022-09-12T11:28:08.952Z,92852.81
2022-09-12T11:29:40.569Z,92857.50
2022-09-12T11:31:12.054Z,92846.91
2022-09-12T11:32:43.908Z,92844.94
2022-09-12T11:34:18.363Z,92846.06
2022-09-12T11:35:54.949Z,92842.59
2022-09-12T11:37:30.942Z,92840.69
2022-09-12T11:39:11.771Z,92850.88
2022-09-12T11:40:50.807Z,92847.75
2022-09-12T11:42:24.164Z,92849.66
2022-09-12T11:43:58.154Z,92850.25
2022-09-12T11:45:30.539Z,92845.84
2022-09-12T11:47:04.498Z,92843.41
2022-09-12T11:48:43.101Z,92833.16
2022-09-12T11:50:23.580Z,92839.63
2022-09-12T11:52:15.795Z,92837.94
2022-09-12T11:54:04.041Z,92837.47
2022-09-12T11:55:55.804Z,92842.91
2022-09-12T11:57:29.866Z,92837.50
2022-09-12T11:59:03.964Z,92849.72
2022-09-12T12:00:36.989Z,92843.53
2022-09-12T12:02:12.012Z,92849.03
2022-09-12T12:03:45.468Z,92849.41
2022-09-12T12:05:21.080Z,92851.25
2022-09-12T12:07:09.019Z,92855.13
2022-09-12T12:08:41.903Z,92848.00
2022-09-12T12:10:32.496Z,92851.09
2022-09-12T12:12:06.725Z,92848.03
2022-09-12T12:13:39.501Z,92847.34
2022-09-12T12:15:14.246Z,92853.13
2022-09-12T12:16:46.077Z,92852.28
2022-09-12T12:18:23.357Z,92846.31
2022-09-12T12:20:03.540Z,92845.06
2022-09-12T12:21:43.907Z,92847.00
2022-09-12T12:23:34.282Z,92846.16
2022-09-12T12:25:08.745Z,92845.69
2022-09-12T12:26:43.486Z,92846.91
2022-09-12T12:28:15.007Z,92844.66
2022-09-12T12:29:46.855Z,92845.94
2022-09-12T12:31:18.681Z,92846.81
2022-09-12T12:32:50.320Z,92847.66
2022-09-12T12:34:23.723Z,92839.50
2022-09-12T12:36:02.068Z,92848.50
2022-09-12T12:37:40.145Z,92846.53
2022-09-12T12:39:29.921Z,92852.09
2022-09-12T12:41:16.958Z,92846.66
2022-09-12T12:42:48.580Z,92843.94
2022-09-12T12:44:38.916Z,92842.28
2022-09-12T12:46:11.594Z,92840.38
2022-09-12T12:47:44.041Z,92852.44
2022-09-12T12:49:19.146Z,92848.88
2022-09-12T12:50:51.006Z,92844.16
2022-09-12T12:52:22.729Z,92854.25
2022-09-12T12:53:54.433Z,92844.84
2022-09-12T12:55:31.349Z,92840.84
2022-09-12T12:57:14.788Z,92849.44
2022-09-12T12:58:46.778Z,92846.31
2022-09-12T13:00:21.686Z,92845.09
2022-09-12T13:01:55.390Z,92848.47
2022-09-12T13:03:28.747Z,92850.72
2022-09-12T13:05:01.391Z,92839.31
2022-09-12T13:06:36.691Z,92845.75
2022-09-12T13:08:08.497Z,92851.56
2022-09-12T13:09:44.587Z,92849.19
2022-09-12T13:11:17.181Z,92844.78
2022-09-12T13:12:49.710Z,92843.59
2022-09-12T13:14:33.668Z,92852.59
2022-09-12T13:16:05.827Z,92856.47
2022-09-12T13:17:43.827Z,92847.81
2022-09-12T13:19:24.771Z,92848.16
2022-09-12T13:21:15.028Z,92848.50
2022-09-12T13:22:47.634Z,92850.19
2022-09-12T13:24:19.325Z,92846.50
2022-09-12T13:25:54.721Z,92845.00
2022-09-12T13:27:26.309Z,92845.97
2022-09-12T13:29:16.276Z,92848.16
2022-09-12T13:31:03.758Z,92848.78
2022-09-12T13:32:35.627Z,92845.06
2022-09-12T13:34:08.322Z,92852.50
2022-09-12T13:35:43.572Z,92852.09
2022-09-12T13:37:22.029Z,92853.69
2022-09-12T13:38:56.863Z,92854.16
2022-09-12T13:40:33.575Z,92848.03
2022-09-12T13:42:05.197Z,92846.94
2022-09-12T13:43:47.080Z,92844.22
2022-09-12T13:45:23.955Z,92839.97
2022-09-12T13:46:56.029Z,92843.97
2022-09-12T13:48:27.908Z,92840.59
2022-09-12T13:49:59.986Z,92847.72
2022-09-12T13:51:32.605Z,92840.94
2022-09-12T13:53:06.599Z,92846.59
2022-09-12T13:54:38.601Z,92845.09
2022-09-12T13:56:12.066Z,92838.50
2022-09-12T13:57:43.818Z,92848.59
2022-09-12T13:59:15.558Z,92839.13
2022-09-12T14:00:48.135Z,92845.47
2022-09-12T14:02:20.348Z,92841.38
2022-09-12T14:04:28.210Z,92848.25
2022-09-12T14:05:59.984Z,92853.38
2022-09-12T14:07:31.775Z,92851.63
2022-09-12T14:09:03.418Z,92845.75
2022-09-12T14:10:35.795Z,92850.91
2022-09-12T14:12:26.083Z,92849.44
2022-09-12T14:13:58.238Z,92849.50
2022-09-12T14:15:33.554Z,92838.63
2022-09-12T14:17:24.599Z,92844.16
2022-09-12T14:18:56.346Z,92844.22
2022-09-12T14:20:34.203Z,92838.81
2022-09-12T14:22:08.238Z,92840.06
2022-09-12T14:23:42.950Z,92846.00
2022-09-12T14:25:15.138Z,92842.97
2022-09-12T14:26:47.723Z,92838.34
2022-09-12T14:28:23.392Z,92836.09
2022-09-12T14:30:09.147Z,92834.22
2022-09-12T14:31:41.485Z,92838.63
2022-09-12T14:33:13.090Z,92835.16
2022-09-12T14:35:03.628Z,92838.78
2022-09-12T14:36:42.524Z,92827.56
2022-09-12T14:38:17.250Z,92837.81
2022-09-12T14:39:49.171Z,92838.25
2022-09-12T14:41:25.439Z,92841.41
2022-09-12T14:43:01.085Z,92838.00
2022-09-12T14:44:33.448Z,92838.13
2022-09-12T14:46:06.247Z,92838.53
2022-09-12T14:47:41.411Z,92828.00
2022-09-12T14:49:15.757Z,92837.13
2022-09-12T14:50:50.831Z,92833.22
2022-09-12T14:52:35.022Z,92836.63
2022-09-12T14:54:07.216Z,92835.63
2022-09-12T14:55:54.010Z,92835.88
2022-09-12T14:57:30.689Z,92830.53
2022-09-12T14:59:21.038Z,92833.72
2022-09-12T15:00:56.412Z,92838.19
2022-09-12T15:02:28.048Z,92833.41
2022-09-12T15:04:00.930Z,92839.59
2022-09-12T15:05:33.256Z,92840.44
2022-09-12T15:07:22.887Z,92835.84
2022-09-12T15:08:55.369Z,92830.47
2022-09-12T15:10:27.285Z,92832.56
2022-09-12T15:11:58.788Z,92832.28
2022-09-12T15:13:32.381Z,92833.41
2022-09-12T15:15:13.800Z,92829.81
2022-09-12T15:16:45.354Z,92835.56
2022-09-12T15:18:16.978Z,92833.47
2022-09-12T15:19:48.712Z,92843.44
2022-09-12T15:21:20.414Z,92837.97
2022-09-12T15:22:52.024Z,92844.28
2022-09-12T15:24:23.879Z,92837.72
2022-09-12T15:25:55.418Z,92848.34
2022-09-12T15:27:26.904Z,92841.03
2022-09-12T15:28:58.456Z,92839.53
2022-09-12T15:30:30.194Z,92838.03
2022-09-12T15:32:01.974Z,92840.03
2022-09-12T15:33:33.551Z,92835.84
2022-09-12T15:35:10.338Z,92839.78
2022-09-12T15:36:41.907Z,92833.97
2022-09-12T15:38:13.524Z,92839.06
2022-09-12T15:39:46.878Z,92835.59
2022-09-12T15:41:19.463Z,92827.41
2022-09-12T15:42:50.973Z,92832.88
2022-09-12T15:44:23.934Z,92834.81
2022-09-12T15:45:55.575Z,92830.88
2022-09-12T15:47:27.274Z,92836.75
2022-09-12T15:48:58.843Z,92828.97
2022-09-12T15:50:30.803Z,92833.59
2022-09-12T15:52:02.503Z,92825.34
2022-09-12T15:53:34.073Z,92832.38
2022-09-12T15:55:06.138Z,92830.13
2022-09-12T15:56:37.706Z,92828.63
2022-09-12T15:58:09.580Z,92825.59
2022-09-12T15:59:41.214Z,92834.19
2022-09-12T16:01:13.472Z,92827.56
2022-09-12T16:02:46.044Z,92824.53
2022-09-12T16:04:24.565Z,92830.00
2022-09-12T16:05:57.215Z,92837.41
2022-09-12T16:07:28.775Z,92831.94
2022-09-12T16:09:00.649Z,92835.50
2022-09-12T16:10:32.199Z,92833.97
2022-09-12T16:12:03.840Z,92834.00
2022-09-12T16:13:35.739Z,92831.66
2022-09-12T16:15:07.543Z,92830.50
2022-09-12T16:16:39.127Z,92836.69
2022-09-12T16:18:11.048Z,92835.13
2022-09-12T16:19:42.867Z,92838.59
2022-09-12T16:21:15.725Z,92837.41
2022-09-12T16:22:48.037Z,92831.88
2022-09-12T16:24:19.827Z,92838.09
2022-09-12T16:25:58.313Z,92840.00
2022-09-12T16:27:29.994Z,92841.09
2022-09-12T16:29:01.824Z,92835.53
2022-09-12T16:30:33.785Z,92837.41
2022-09-12T16:32:05.915Z,92840.13
2022-09-12T16:33:38.093Z,92839.19
2022-09-12T16:35:09.932Z,92840.22
2022-09-12T16:36:41.749Z,92845.59
2022-09-12T16:38:13.259Z,92843.59
2022-09-12T16:39:45.228Z,92837.66
2022-09-12T16:41:17.440Z,92845.72
2022-09-12T16:42:49.010Z,92849.06
2022-09-12T16:44:20.715Z,92849.38
2022-09-12T16:46:00.528Z,92855.94
2022-09-12T16:47:32.598Z,92853.84
2022-09-12T16:49:05.234Z,92855.25
2022-09-12T16:50:36.741Z,92856.28
2022-09-12T16:52:08.331Z,92852.63
2022-09-12T16:53:39.858Z,92856.00
2022-09-12T16:55:11.505Z,92853.94
2022-09-12T16:56:43.345Z,92853.78
2022-09-12T16:58:14.978Z,92860.78
2022-09-12T16:59:46.635Z,92860.50
2022-09-12T17:01:22.545Z,92851.34
2022-09-12T17:02:54.576Z,92866.38
2022-09-12T17:04:26.706Z,92868.16
2022-09-12T17:06:01.719Z,92860.31
2022-09-12T17:07:34.542Z,92864.44
2022-09-12T17:09:06.475Z,92864.97
2022-09-12T17:10:40.861Z,92870.69
2022-09-12T17:12:12.465Z,92869.50
2022-09-12T17:14:04.305Z,92867.13
2022-09-12T17:15:37.919Z,92863.09
2022-09-12T17:17:09.615Z,92871.38
2022-09-12T17:18:41.084Z,92871.22
2022-09-12T17:20:12.705Z,92872.56
2022-09-12T17:21:45.120Z,92870.03
2022-09-12T17:23:16.667Z,92865.94
2022-09-12T17:24:48.351Z,92868.91
2022-09-12T17:26:20.873Z,92863.22
2022-09-12T17:27:52.477Z,92872.34
2022-09-12T17:29:24.194Z,92867.81
2022-09-12T17:30:56.945Z,92869.69
2022-09-12T17:32:28.658Z,92874.22
2022-09-12T17:34:01.162Z,92874.91
2022-09-12T17:35:36.148Z,92877.97
2022-09-12T17:37:07.653Z,92884.94
2022-09-12T17:38:39.838Z,92885.16
2022-09-12T17:40:12.363Z,92883.94
2022-09-12T17:41:45.918Z,92887.72
2022-09-12T17:43:17.808Z,92889.09
2022-09-12T17:44:50.518Z,92892.53
2022-09-12T17:46:22.369Z,92892.78
2022-09-12T17:47:54.224Z,92892.66
2022-09-12T17:49:26.099Z,92898.38
2022-09-12T17:50:59.211Z,92891.25
2022-09-12T17:52:30.875Z,92895.53
2022-09-12T17:54:08.722Z,92899.38
2022-09-12T17:55:42.276Z,92889.78
2022-09-12T17:57:13.791Z,92899.03
2022-09-12T17:58:45.287Z,92891.25
2022-09-12T18:00:17.011Z,92893.97
2022-09-12T18:02:07.572Z,92893.50
2022-09-12T18:03:39.218Z,92893.50
2022-09-12T18:05:10.757Z,92896.22
2022-09-12T18:06:48.385Z,92903.25
2022-09-12T18:08:20.278Z,92902.78
2022-09-12T18:09:52.009Z,92909.00
2022-09-12T18:11:23.599Z,92907.81
2022-09-12T18:12:55.436Z,92898.94
2022-09-12T18:14:27.887Z,92903.94
2022-09-12T18:16:03.424Z,92910.06
2022-09-12T18:17:35.429Z,92901.47
2022-09-12T18:19:07.002Z,92908.72
2022-09-12T18:20:38.580Z,92910.22
2022-09-12T18:22:11.453Z,92915.19
2022-09-12T18:23:43.261Z,92912.81
2022-09-12T18:25:14.889Z,92916.22
2022-09-12T18:26:46.416Z,92914.19
2022-09-12T18:28:18.965Z,92911.06
2022-09-12T18:30:10.326Z,92917.28
2022-09-12T18:31:42.676Z,92922.69
2022-09-12T18:33:14.195Z,92918.06
2022-09-12T18:34:46.083Z,92913.78
2022-09-12T18:36:17.873Z,92912.53
2022-09-12T18:37:49.644Z,92916.81
2022-09-12T18:39:25.361Z,92914.44
2022-09-12T18:41:03.500Z,92917.84
2022-09-12T18:42:35.328Z,92914.66
2022-09-12T18:44:07.305Z,92912.28